Buffalo, WY

8:52 PM MDT on July 29, 2016 (GMT -0600)
Buffalo | | Change Station

Elev 4708 ft 44.34 °N, 106.70 °W | Updated 6 seconds ago

Partly Cloudy
Partly Cloudy
72.0 °F
Feels Like 77 °F
N
0.0
Wind Variable Wind from West
Gusts 0.0 mph

Today
High -- | Low -- °F
--% Chance of Precip.
Yesterday
High -- | Low -- °F
Precip. -- in
Pressure 29.91 in
Visibility 10.0 miles
Clouds Few 8500 ft
Heat Index 77 °F
Dew Point 52 °F
Humidity 50%
Rainfall 0.00 in
Snow Depth Not available.
5:51 AM 8:34 PM
Waning Crescent, 17% visible
METAR KBYG 300153Z AUTO 25009KT 10SM FEW085 24/09 A3008 RMK AO2 SLP127 T02440089
Pressure 29.91 in
Visibility 10.0 miles
Clouds Few 8500 ft
Heat Index 77 °F
Dew Point 52 °F
Humidity 50%
Rainfall 0.00 in
Snow Depth Not available.
5:51 AM 8:34 PM
Waning Crescent, 17% visible
METAR KBYG 300153Z AUTO 25009KT 10SM FEW085 24/09 A3008 RMK AO2 SLP127 T02440089

10-Day Weather Forecast

Almanac

Astronomy

Jul. 29, 2016 Rise Set
Actual Time
Civil Twilight
Nautical Twilight
Astronomical Twilight
Moon
Length of Visible Light
Length of Day
Tomorrow will be .
, % of the Moon is Illuminated

Today's Extremes

State Highs State Lows

Community

WunderPhotos

Upload Photos

1,928,491 photos uploaded!

WunderBlog® & News

Nearby

Air Quality

  Air Quality AQ Index Pollutant
Not available.

Snow Depth

Station Depth Elevation

Earthquake Activity

City Distance Mag. Time & Date
Minimum magnitude displayed is 2.5.

Coastal Water Temperatures

Place Temperature

Stations

Nearby Weather Stations

Station Location Temp. Windchill Dew Point Humidity Wind Precip. Elev Updated Type
                   

Watches & Warnings

There are currently no watches in effect.